createdAt,value
2017-11-23T00:01:14.576Z,100301.91
2017-11-23T00:03:42.148Z,100299.42
2017-11-23T00:06:09.725Z,100305.01
2017-11-23T00:08:37.337Z,100306.58
2017-11-23T00:11:04.923Z,100309.47
2017-11-23T00:13:32.558Z,100318.03
2017-11-23T00:16:00.150Z,100311.48
2017-11-23T00:18:27.741Z,100311.64
2017-11-23T00:20:55.362Z,100313.03
2017-11-23T00:23:22.976Z,100318.11
2017-11-23T00:25:50.602Z,100301.84
2017-11-23T00:28:18.193Z,100308.58
2017-11-23T00:30:46.046Z,100313.80
2017-11-23T00:33:13.661Z,100316.38
2017-11-23T00:35:41.254Z,100321.27
2017-11-23T00:38:08.873Z,100328.55
2017-11-23T00:40:36.776Z,100319.92
2017-11-23T00:43:04.366Z,100323.33
2017-11-23T00:45:31.981Z,100319.85
2017-11-23T00:47:59.575Z,100315.78
2017-11-23T00:50:27.218Z,100315.52
2017-11-23T00:52:54.799Z,100308.16
2017-11-23T00:55:22.395Z,100312.64
2017-11-23T00:57:50.017Z,100312.23
2017-11-23T01:00:17.636Z,100309.99
2017-11-23T01:02:45.258Z,100309.64
2017-11-23T01:05:12.849Z,100307.98
2017-11-23T01:07:40.441Z,100306.40
2017-11-23T01:10:08.093Z,100308.31
2017-11-23T01:12:35.720Z,100303.86
2017-11-23T01:15:03.351Z,100298.14
2017-11-23T01:17:30.940Z,100301.20
2017-11-23T01:19:58.528Z,100303.76
2017-11-23T01:22:31.637Z,100294.06
2017-11-23T01:24:59.225Z,100293.64
2017-11-23T01:27:26.856Z,100288.59
2017-11-23T01:29:54.439Z,100284.68
2017-11-23T01:32:22.033Z,100269.19
2017-11-23T01:34:49.970Z,100274.25
2017-11-23T01:37:17.544Z,100285.84
2017-11-23T01:39:45.169Z,100278.81
2017-11-23T01:42:12.754Z,100282.06
2017-11-23T01:44:40.351Z,100279.98
2017-11-23T01:47:07.962Z,100268.46
2017-11-23T01:49:35.585Z,100273.00
2017-11-23T01:52:03.220Z,100275.65
2017-11-23T01:54:31.033Z,100271.19
2017-11-23T01:56:58.941Z,100258.34
2017-11-23T01:59:26.546Z,100262.08
2017-11-23T02:01:54.207Z,100254.20
2017-11-23T02:04:21.825Z,100252.69
2017-11-23T02:06:49.435Z,100244.23
2017-11-23T02:09:17.043Z,100242.09
2017-11-23T02:11:44.655Z,100248.87
2017-11-23T02:14:12.240Z,100237.45
2017-11-23T02:16:39.858Z,100245.07
2017-11-23T02:19:07.802Z,100240.59
2017-11-23T02:21:35.381Z,100235.72
2017-11-23T02:24:02.998Z,100233.81
2017-11-23T02:26:30.605Z,100229.98
2017-11-23T02:28:58.234Z,100230.66
2017-11-23T02:31:25.831Z,100227.68
2017-11-23T02:33:53.428Z,100227.91
2017-11-23T02:36:21.054Z,100217.08
2017-11-23T02:38:48.647Z,100219.47
2017-11-23T02:41:16.267Z,100220.94
2017-11-23T02:43:44.128Z,100217.39
2017-11-23T02:46:11.743Z,100213.81
2017-11-23T02:48:39.353Z,100213.00
2017-11-23T02:51:06.945Z,100207.85
2017-11-23T02:53:34.575Z,100208.51
2017-11-23T02:56:02.187Z,100205.54
2017-11-23T02:58:30.109Z,100204.23
2017-11-23T03:00:57.726Z,100202.97
2017-11-23T03:03:25.313Z,100201.06
2017-11-23T03:05:52.950Z,100209.53
2017-11-23T03:08:20.569Z,100211.18
2017-11-23T03:10:48.324Z,100208.50
2017-11-23T03:13:15.946Z,100206.70
2017-11-23T03:15:43.531Z,100198.81
2017-11-23T03:18:11.167Z,100202.54
2017-11-23T03:20:38.755Z,100206.00
2017-11-23T03:23:06.342Z,100200.63
2017-11-23T03:25:33.955Z,100201.44
2017-11-23T03:28:01.601Z,100199.20
2017-11-23T03:30:29.231Z,100198.81
2017-11-23T03:32:57.082Z,100190.27
2017-11-23T03:35:24.663Z,100190.52
2017-11-23T03:37:52.290Z,100191.02
2017-11-23T03:40:19.873Z,100192.03
2017-11-23T03:42:47.494Z,100193.34
2017-11-23T03:45:15.077Z,100197.50
2017-11-23T03:47:42.675Z,100195.85
2017-11-23T03:50:10.294Z,100198.91
2017-11-23T03:52:38.188Z,100196.98
2017-11-23T03:55:05.810Z,100197.27
2017-11-23T03:57:33.393Z,100200.64
2017-11-23T04:00:00.977Z,100204.11
2017-11-23T04:02:28.597Z,100202.30
2017-11-23T04:04:56.509Z,100199.48
2017-11-23T04:07:24.140Z,100200.72
2017-11-23T04:09:51.829Z,100199.56
2017-11-23T04:12:19.470Z,100195.02
2017-11-23T04:14:47.076Z,100187.72
2017-11-23T04:17:14.691Z,100188.53
2017-11-23T04:19:42.577Z,100182.08
2017-11-23T04:22:10.447Z,100180.50
2017-11-23T04:24:38.319Z,100177.59
2017-11-23T04:27:05.968Z,100170.89
2017-11-23T04:29:33.545Z,100167.48
2017-11-23T04:32:01.137Z,100168.00
2017-11-23T04:34:28.766Z,100168.30
2017-11-23T04:36:56.361Z,100173.47
2017-11-23T04:39:23.940Z,100173.63
2017-11-23T04:41:51.556Z,100186.53
2017-11-23T04:44:19.155Z,100182.56
2017-11-23T04:46:47.078Z,100180.32
2017-11-23T04:49:14.705Z,100173.84
2017-11-23T04:51:42.293Z,100178.39
2017-11-23T04:54:09.880Z,100167.38
2017-11-23T04:56:37.493Z,100176.16
2017-11-23T04:59:05.073Z,100173.06
2017-11-23T05:01:32.697Z,100165.09
2017-11-23T05:04:00.275Z,100164.28
2017-11-23T05:06:27.878Z,100166.86
2017-11-23T05:08:55.496Z,100167.85
2017-11-23T05:11:23.407Z,100179.09
2017-11-23T05:13:51.035Z,100171.37
2017-11-23T05:16:18.630Z,100172.20
2017-11-23T05:18:46.212Z,100170.13
2017-11-23T05:21:13.822Z,100176.17
2017-11-23T05:23:41.719Z,100166.58
2017-11-23T05:26:09.346Z,100170.48
2017-11-23T05:28:36.933Z,100171.28
2017-11-23T05:31:04.918Z,100169.63
2017-11-23T05:33:32.580Z,100167.52
2017-11-23T05:36:00.165Z,100174.94
2017-11-23T05:38:27.778Z,100179.24
2017-11-23T05:40:55.426Z,100174.88
2017-11-23T05:43:23.014Z,100177.42
2017-11-23T05:45:50.621Z,100171.45
2017-11-23T05:48:18.560Z,100170.37
2017-11-23T05:50:46.529Z,100166.39
2017-11-23T05:53:14.126Z,100168.63
2017-11-23T05:55:41.737Z,100163.90
2017-11-23T05:58:09.466Z,100166.47
2017-11-23T06:00:37.061Z,100175.52
2017-11-23T06:03:05.047Z,100181.76
2017-11-23T06:05:32.730Z,100180.02
2017-11-23T06:08:00.345Z,100174.12
2017-11-23T06:10:27.962Z,100178.47
2017-11-23T06:12:55.909Z,100183.08
2017-11-23T06:15:23.606Z,100192.23
2017-11-23T06:17:51.213Z,100193.72
2017-11-23T06:20:18.821Z,100203.67
2017-11-23T06:22:46.434Z,100199.36
2017-11-23T06:25:14.018Z,100190.46
2017-11-23T06:27:41.665Z,100183.16
2017-11-23T06:30:09.257Z,100176.78
2017-11-23T06:32:36.922Z,100170.48
2017-11-23T06:35:04.541Z,100171.37
2017-11-23T06:37:32.130Z,100154.36
2017-11-23T06:39:59.762Z,100160.58
2017-11-23T06:42:27.356Z,100170.48
2017-11-23T06:44:54.965Z,100168.83
2017-11-23T06:47:22.680Z,100165.91
2017-11-23T06:49:50.294Z,100165.67
2017-11-23T06:52:17.954Z,100174.12
2017-11-23T06:54:45.555Z,100173.11
2017-11-23T06:57:13.156Z,100170.38
2017-11-23T06:59:40.778Z,100175.18
2017-11-23T07:02:08.365Z,100170.17
2017-11-23T07:04:35.992Z,100172.09
2017-11-23T07:07:03.638Z,100166.25
2017-11-23T07:09:31.245Z,100164.97
2017-11-23T07:11:58.890Z,100168.88
2017-11-23T07:14:26.522Z,100172.02
2017-11-23T07:16:54.141Z,100170.83
2017-11-23T07:19:21.714Z,100163.33
2017-11-23T07:21:49.649Z,100168.85
2017-11-23T07:24:17.278Z,100167.15
2017-11-23T07:26:49.119Z,100167.73
2017-11-23T07:29:16.781Z,100162.00
2017-11-23T07:31:44.366Z,100154.27
2017-11-23T07:34:11.973Z,100149.82
2017-11-23T07:36:39.930Z,100148.35
2017-11-23T07:39:07.543Z,100137.60
2017-11-23T07:41:35.207Z,100135.10
2017-11-23T07:44:04.559Z,100142.25
2017-11-23T07:46:32.442Z,100136.92
2017-11-23T07:49:00.103Z,100138.34
2017-11-23T07:51:27.704Z,100140.48
2017-11-23T07:53:55.382Z,100143.91
2017-11-23T07:56:23.128Z,100147.50
2017-11-23T07:58:50.805Z,100147.98
2017-11-23T08:01:18.425Z,100153.20
2017-11-23T08:03:46.018Z,100154.67
2017-11-23T08:06:13.760Z,100160.19
2017-11-23T08:08:41.448Z,100163.34
2017-11-23T08:11:10.378Z,100159.94
2017-11-23T08:13:38.066Z,100165.13
2017-11-23T08:16:06.823Z,100169.36
2017-11-23T08:18:36.330Z,100170.45
2017-11-23T08:21:04.322Z,100169.77
2017-11-23T08:23:33.960Z,100169.63
2017-11-23T08:26:01.832Z,100166.47
2017-11-23T08:28:30.891Z,100166.98
2017-11-23T08:30:59.356Z,100164.26
2017-11-23T08:33:30.995Z,100164.05
2017-11-23T08:36:03.989Z,100166.16
2017-11-23T08:38:31.605Z,100161.42
2017-11-23T08:41:03.569Z,100159.77
2017-11-23T08:43:31.199Z,100164.26
2017-11-23T08:45:58.837Z,100157.52
2017-11-23T08:48:26.657Z,100167.34
2017-11-23T08:50:54.297Z,100179.20
2017-11-23T08:53:21.926Z,100179.47
2017-11-23T08:55:50.372Z,100196.59
2017-11-23T08:58:18.117Z,100186.30
2017-11-23T09:00:45.776Z,100184.11
2017-11-23T09:03:13.403Z,100189.26
2017-11-23T09:05:44.484Z,100179.02
2017-11-23T09:08:12.548Z,100178.06
2017-11-23T09:10:40.955Z,100172.46
2017-11-23T09:13:09.772Z,100175.52
2017-11-23T09:15:38.594Z,100176.16
2017-11-23T09:18:06.213Z,100182.55
2017-11-23T09:20:33.816Z,100174.58
2017-11-23T09:23:01.418Z,100180.97
2017-11-23T09:25:29.053Z,100184.92
2017-11-23T09:27:56.634Z,100182.76
2017-11-23T09:30:24.597Z,100199.56
2017-11-23T09:32:52.215Z,100203.37
2017-11-23T09:35:19.933Z,100194.16
2017-11-23T09:37:47.552Z,100192.16
2017-11-23T09:40:15.451Z,100191.88
2017-11-23T09:42:43.274Z,100183.12
2017-11-23T09:45:10.897Z,100163.45
2017-11-23T09:47:38.498Z,100162.90
2017-11-23T09:50:06.115Z,100157.25
2017-11-23T09:52:33.741Z,100158.26
2017-11-23T09:55:01.398Z,100147.30
2017-11-23T09:57:29.034Z,100158.06
2017-11-23T09:59:56.631Z,100167.08
2017-11-23T10:02:24.298Z,100167.11
2017-11-23T10:04:51.892Z,100176.16
2017-11-23T10:07:19.537Z,100177.20
2017-11-23T10:09:47.202Z,100176.94
2017-11-23T10:12:14.798Z,100176.78
2017-11-23T10:14:45.163Z,100157.88
2017-11-23T10:17:13.253Z,100150.53
2017-11-23T10:19:40.938Z,100160.48
2017-11-23T10:22:08.527Z,100139.61
2017-11-23T10:24:36.155Z,100150.59
2017-11-23T10:27:03.822Z,100152.20
2017-11-23T10:29:31.409Z,100144.06
2017-11-23T10:31:59.045Z,100147.43
2017-11-23T10:34:26.645Z,100147.02
2017-11-23T10:36:54.245Z,100144.26
2017-11-23T10:39:21.881Z,100123.73
2017-11-23T10:41:49.485Z,100132.80
2017-11-23T10:44:17.239Z,100139.70
2017-11-23T10:46:44.872Z,100132.57
2017-11-23T10:49:12.501Z,100131.18
2017-11-23T10:51:40.134Z,100118.02
2017-11-23T10:54:07.751Z,100101.67
2017-11-23T10:56:35.390Z,100099.84
2017-11-23T10:59:03.010Z,100118.47
2017-11-23T11:01:30.627Z,100123.30
2017-11-23T11:03:58.250Z,100123.72
2017-11-23T11:06:25.918Z,100119.24
2017-11-23T11:08:53.540Z,100119.06
2017-11-23T11:11:21.185Z,100118.61
2017-11-23T11:13:48.776Z,100098.71
2017-11-23T11:16:16.402Z,100104.56
2017-11-23T11:18:44.048Z,100110.12
2017-11-23T11:21:11.721Z,100102.40
2017-11-23T11:23:39.345Z,100098.02
2017-11-23T11:26:07.174Z,100101.45
2017-11-23T11:28:34.793Z,100100.23
2017-11-23T11:31:02.381Z,100102.18
2017-11-23T11:33:30.016Z,100099.73
2017-11-23T11:35:57.603Z,100093.19
2017-11-23T11:38:25.521Z,100089.72
2017-11-23T11:40:53.158Z,100106.53
2017-11-23T11:43:21.057Z,100100.75
2017-11-23T11:45:48.682Z,100114.10
2017-11-23T11:48:16.278Z,100119.54
2017-11-23T11:50:43.862Z,100114.73
2017-11-23T11:53:11.521Z,100106.44
2017-11-23T11:55:39.118Z,100097.80
2017-11-23T11:58:06.746Z,100094.66
2017-11-23T12:00:34.595Z,100091.58
2017-11-23T12:03:02.178Z,100093.36
2017-11-23T12:05:29.787Z,100083.39
2017-11-23T12:07:57.405Z,100089.78
2017-11-23T12:10:25.366Z,100089.98
2017-11-23T12:12:52.957Z,100087.11
2017-11-23T12:15:32.450Z,100093.18
2017-11-23T12:21:13.858Z,100099.45
2017-11-23T12:23:45.230Z,100091.83
2017-11-23T12:26:12.853Z,100091.31
2017-11-23T12:28:52.252Z,100086.50
2017-11-23T12:31:21.432Z,100080.16
2017-11-23T12:33:49.085Z,100075.81
2017-11-23T12:36:17.043Z,100075.33
2017-11-23T12:38:44.635Z,100080.67
2017-11-23T12:41:12.470Z,100079.53
2017-11-23T12:43:40.085Z,100077.80
2017-11-23T12:46:07.685Z,100083.68
2017-11-23T12:48:35.566Z,100076.70
2017-11-23T12:51:03.181Z,100064.24
2017-11-23T12:53:30.801Z,100058.20
2017-11-23T12:55:58.384Z,100060.50
2017-11-23T12:58:26.317Z,100061.48
2017-11-23T13:01:06.629Z,100064.16
2017-11-23T13:03:35.193Z,100077.72
2017-11-23T13:06:03.396Z,100080.95
2017-11-23T13:08:31.070Z,100079.42
2017-11-23T13:10:58.676Z,100077.56
2017-11-23T13:13:26.269Z,100079.83
2017-11-23T13:15:53.887Z,100069.87
2017-11-23T13:18:21.749Z,100072.88
2017-11-23T13:20:49.393Z,100070.72
2017-11-23T13:23:17.015Z,100075.14
2017-11-23T13:25:44.597Z,100073.28
2017-11-23T13:28:12.513Z,100081.30
2017-11-23T13:30:40.375Z,100089.94
2017-11-23T13:33:07.977Z,100093.86
2017-11-23T13:35:35.608Z,100099.00
2017-11-23T13:38:03.199Z,100087.36
2017-11-23T13:40:30.786Z,100091.41
2017-11-23T13:42:58.433Z,100091.09
2017-11-23T13:45:26.024Z,100090.98
2017-11-23T13:47:53.612Z,100086.66
2017-11-23T13:50:21.586Z,100090.37
2017-11-23T13:52:49.447Z,100086.17
2017-11-23T13:55:17.085Z,100088.33
2017-11-23T13:57:44.715Z,100085.04
2017-11-23T14:00:12.297Z,100097.80
2017-11-23T14:02:39.929Z,100096.16
2017-11-23T14:05:07.557Z,100117.66
2017-11-23T14:07:35.189Z,100126.17
2017-11-23T14:10:02.774Z,100114.77
2017-11-23T14:12:30.369Z,100115.50
2017-11-23T14:14:58.005Z,100121.56
2017-11-23T14:17:25.874Z,100128.66
2017-11-23T14:19:53.587Z,100118.80
2017-11-23T14:22:21.167Z,100113.87
2017-11-23T14:24:48.764Z,100110.67
2017-11-23T14:27:16.388Z,100103.06
2017-11-23T14:29:44.014Z,100119.52
2017-11-23T14:32:11.663Z,100113.67
2017-11-23T14:34:39.254Z,100113.25
2017-11-23T14:37:06.844Z,100108.42
2017-11-23T14:39:34.450Z,100127.25
2017-11-23T14:42:02.078Z,100117.27
2017-11-23T14:44:29.762Z,100126.11
2017-11-23T14:46:57.351Z,100124.98
2017-11-23T14:49:24.974Z,100125.30
2017-11-23T14:51:52.845Z,100129.19
2017-11-23T14:54:20.438Z,100142.77
2017-11-23T14:56:48.059Z,100147.00
2017-11-23T14:59:15.937Z,100151.94
2017-11-23T15:01:43.598Z,100155.75
2017-11-23T15:04:11.268Z,100162.23
2017-11-23T15:06:38.850Z,100169.03
2017-11-23T15:09:06.499Z,100171.49
2017-11-23T15:11:34.090Z,100171.89
2017-11-23T15:14:02.018Z,100170.64
2017-11-23T15:16:29.598Z,100167.98
2017-11-23T15:18:57.193Z,100175.78
2017-11-23T15:21:24.819Z,100179.05
2017-11-23T15:23:52.393Z,100193.88
2017-11-23T15:26:20.031Z,100180.99
2017-11-23T15:28:47.897Z,100179.46
2017-11-23T15:31:15.500Z,100179.68
2017-11-23T15:33:47.688Z,100189.84
2017-11-23T15:36:15.317Z,100192.94
2017-11-23T15:38:42.948Z,100191.38
2017-11-23T15:41:10.536Z,100198.16
2017-11-23T15:43:38.121Z,100197.34
2017-11-23T15:46:06.041Z,100196.31
2017-11-23T15:48:33.910Z,100187.25
2017-11-23T15:51:01.565Z,100185.78
2017-11-23T15:53:29.154Z,100184.27
2017-11-23T15:55:56.729Z,100195.17
2017-11-23T15:58:24.663Z,100193.41
2017-11-23T16:00:52.245Z,100194.23
2017-11-23T16:03:19.864Z,100197.11
2017-11-23T16:05:47.459Z,100208.23
2017-11-23T16:08:15.042Z,100196.31
2017-11-23T16:10:42.652Z,100195.48
2017-11-23T16:13:10.285Z,100197.33
2017-11-23T16:15:37.920Z,100202.48
2017-11-23T16:18:05.563Z,100206.70
2017-11-23T16:20:33.335Z,100209.17
2017-11-23T16:23:00.952Z,100215.77
2017-11-23T16:25:28.866Z,100226.87
2017-11-23T16:27:56.506Z,100227.72
2017-11-23T16:30:24.109Z,100233.48
2017-11-23T16:32:51.692Z,100237.30
2017-11-23T16:35:19.610Z,100232.33
2017-11-23T16:37:50.626Z,100225.58
2017-11-23T16:40:32.123Z,100226.70
2017-11-23T16:42:59.729Z,100226.57
2017-11-23T16:45:32.849Z,100233.39
2017-11-23T16:48:05.945Z,100246.34
2017-11-23T16:50:49.314Z,100252.91
2017-11-23T16:53:22.814Z,100239.97
2017-11-23T16:58:55.823Z,100248.80
2017-11-23T17:01:29.053Z,100247.05
2017-11-23T17:03:57.459Z,100251.79
2017-11-23T17:09:42.492Z,100260.39
2017-11-23T17:12:15.755Z,100267.01
2017-11-23T17:14:48.953Z,100274.08
2017-11-23T17:20:17.466Z,100283.66
2017-11-23T17:22:45.083Z,100293.22
2017-11-23T17:25:12.713Z,100285.53
2017-11-23T17:27:40.369Z,100287.89
2017-11-23T17:30:07.965Z,100283.78
2017-11-23T17:32:35.600Z,100303.44
2017-11-23T17:35:03.234Z,100307.57
2017-11-23T17:37:31.705Z,100293.75
2017-11-23T17:39:59.356Z,100293.27
2017-11-23T17:42:27.005Z,100301.30
2017-11-23T17:44:54.605Z,100299.95
2017-11-23T17:47:22.237Z,100300.69
2017-11-23T17:49:49.888Z,100305.11
2017-11-23T17:52:17.581Z,100304.57
2017-11-23T17:54:45.482Z,100296.96
2017-11-23T17:57:13.196Z,100297.38
2017-11-23T17:59:40.818Z,100308.48
2017-11-23T18:02:08.403Z,100315.49
2017-11-23T18:04:36.029Z,100318.58
2017-11-23T18:07:03.656Z,100319.19
2017-11-23T18:09:31.258Z,100320.43
2017-11-23T18:11:58.875Z,100321.67
2017-11-23T18:14:26.459Z,100324.95
2017-11-23T18:16:54.103Z,100327.72
2017-11-23T18:19:21.698Z,100319.50
2017-11-23T18:21:49.293Z,100323.73
2017-11-23T18:24:17.236Z,100322.72
2017-11-23T18:26:44.821Z,100326.45
2017-11-23T18:29:12.681Z,100320.55
2017-11-23T18:31:40.265Z,100328.28
2017-11-23T18:34:08.196Z,100324.71
2017-11-23T18:36:35.821Z,100312.88
2017-11-23T18:39:03.433Z,100328.80
2017-11-23T18:41:31.142Z,100333.32
2017-11-23T18:43:58.731Z,100327.48
2017-11-23T18:46:26.361Z,100328.58
2017-11-23T18:48:54.286Z,100331.95
2017-11-23T18:51:21.889Z,100336.67
2017-11-23T18:53:49.520Z,100339.95
2017-11-23T18:56:17.125Z,100338.48
2017-11-23T18:58:44.718Z,100337.16
2017-11-23T19:01:12.369Z,100331.16
2017-11-23T19:03:39.962Z,100335.87
2017-11-23T19:06:07.589Z,100343.99
2017-11-23T19:08:35.198Z,100346.35
2017-11-23T19:11:02.792Z,100349.76
2017-11-23T19:13:30.429Z,100346.16
2017-11-23T19:15:58.021Z,100351.56
2017-11-23T19:18:25.657Z,100353.51
2017-11-23T19:20:53.250Z,100359.78
2017-11-23T19:23:20.852Z,100359.19
2017-11-23T19:25:48.478Z,100351.04
2017-11-23T19:28:16.383Z,100363.26
2017-11-23T19:30:44.016Z,100374.88
2017-11-23T19:33:11.602Z,100378.37
2017-11-23T19:35:39.466Z,100372.52
2017-11-23T19:38:07.069Z,100369.45
2017-11-23T19:40:34.678Z,100372.84
2017-11-23T19:43:02.344Z,100378.98
2017-11-23T19:45:30.227Z,100382.81
2017-11-23T19:47:57.831Z,100386.50
2017-11-23T19:50:25.522Z,100388.02
2017-11-23T19:52:53.136Z,100395.63
2017-11-23T19:55:20.766Z,100395.30
2017-11-23T19:57:48.369Z,100393.05
2017-11-23T20:00:15.961Z,100394.83
2017-11-23T20:02:43.580Z,100394.02
2017-11-23T20:05:11.175Z,100392.77
2017-11-23T20:07:38.809Z,100397.19
2017-11-23T20:10:06.409Z,100401.20
2017-11-23T20:12:34.007Z,100400.78
2017-11-23T20:15:01.625Z,100399.52
2017-11-23T20:17:29.227Z,100404.17
2017-11-23T20:19:56.877Z,100411.55
2017-11-23T20:22:24.559Z,100408.23
2017-11-23T20:24:52.157Z,100408.59
2017-11-23T20:27:19.800Z,100405.23
2017-11-23T20:29:47.676Z,100408.18
2017-11-23T20:32:15.319Z,100408.78
2017-11-23T20:34:42.959Z,100419.10
2017-11-23T20:37:10.639Z,100423.95
2017-11-23T20:39:38.271Z,100418.73
2017-11-23T20:42:05.930Z,100418.55
2017-11-23T20:44:33.670Z,100416.20
2017-11-23T20:47:01.267Z,100420.81
2017-11-23T20:49:29.160Z,100429.98
2017-11-23T20:51:56.770Z,100439.63
2017-11-23T20:54:24.365Z,100442.84
2017-11-23T20:56:52.004Z,100434.13
2017-11-23T20:59:19.591Z,100442.70
2017-11-23T21:01:47.188Z,100436.53
2017-11-23T21:04:14.841Z,100443.53
2017-11-23T21:06:42.489Z,100452.38
2017-11-23T21:09:10.113Z,100447.68
2017-11-23T21:11:42.266Z,100456.39
2017-11-23T21:14:09.881Z,100458.84
2017-11-23T21:16:37.847Z,100464.51
2017-11-23T21:19:05.446Z,100474.20
2017-11-23T21:21:33.074Z,100475.44
2017-11-23T21:24:00.665Z,100479.31
2017-11-23T21:26:28.290Z,100482.08
2017-11-23T21:28:55.899Z,100480.83
2017-11-23T21:31:23.481Z,100485.90
2017-11-23T21:33:51.211Z,100492.50
2017-11-23T21:36:18.875Z,100494.02
2017-11-23T21:38:46.524Z,100500.11
2017-11-23T21:41:14.122Z,100494.48
2017-11-23T21:43:41.722Z,100504.48
2017-11-23T21:46:09.342Z,100503.09
2017-11-23T21:48:36.942Z,100503.98
2017-11-23T21:51:04.582Z,100502.96
2017-11-23T21:53:33.447Z,100492.26
2017-11-23T21:56:01.057Z,100501.30
2017-11-23T21:58:28.688Z,100505.39
2017-11-23T22:00:56.409Z,100512.88
2017-11-23T22:03:24.074Z,100515.96
2017-11-23T22:05:51.657Z,100520.39
2017-11-23T22:08:19.252Z,100526.77
2017-11-23T22:10:46.963Z,100530.41
2017-11-23T22:13:14.561Z,100535.11
2017-11-23T22:15:42.583Z,100540.78
2017-11-23T22:18:10.184Z,100542.31
2017-11-23T22:20:37.783Z,100549.37
2017-11-23T22:23:05.461Z,100554.91
2017-11-23T22:25:33.096Z,100554.08
2017-11-23T22:28:01.225Z,100559.84
2017-11-23T22:30:28.817Z,100559.14
2017-11-23T22:32:56.433Z,100561.92
2017-11-23T22:35:24.045Z,100569.53
2017-11-23T22:37:51.741Z,100561.18
2017-11-23T22:40:19.367Z,100552.66
2017-11-23T22:42:46.986Z,100556.05
2017-11-23T22:45:14.580Z,100556.06
2017-11-23T22:47:42.508Z,100562.94
2017-11-23T22:50:10.093Z,100574.37
2017-11-23T22:52:37.724Z,100576.41
2017-11-23T22:55:05.316Z,100570.13
2017-11-23T22:57:32.919Z,100573.96
2017-11-23T23:00:00.542Z,100570.45
2017-11-23T23:02:28.395Z,100585.54
